PWSweather.com
Personal Weather Stations
Station Observations
WISCHPK61
Green Bay Schmitt Park, Green Bay, WI 54311

Green Bay Schmitt ParkGreen Bay, WI 54311

Lat: 44.514277, Lon: -87.935067

Elevation: 735

Station Type: Acu Rite Pro Weather Center model 02032C

http://greenbayweathercam.com

High Low Average
Temperature 44.6°F7.0°C 29.7°F-1.3°C 35.1°F1.7°C
Dew Point 36.3°F2.4°C 29.2°F-1.6°C 32.5°F0.3°C
Winds 1.2 mph 1.9 kmh Calm Calm Calm SCalm S
Wind Gusts 2.3 mph3.7 kmh -- --
Humidity 99% 72% 91%
Pressure 29.24 in990.2 mb 28.93 in979.7 mb -
Precipitation 0.06 in1.5 mm - -
Hour Temp Dew Point Humidity Winds Wind Gusts Pressure Precip Precip Rate Daily Precip Total
12:00 AM 34.5°F1.4°C 31.3°F-0.4°C 88% Calm Calm -- 28.90 in978.7 mb - 0.00 in0.0 mm 0.04 in1.0 mm
12:15 AM 34.5°F1.4°C 31.3°F-0.4°C 88% Calm Calm -- 28.91 in979.0 mb - 0.00 in0.0 mm 0.04 in1.0 mm
12:30 AM 34.7°F1.5°C 31.5°F-0.3°C 88% Calm Calm 1.2 mph1.9 kmh 28.91 in979.0 mb - 0.00 in0.0 mm 0.04 in1.0 mm
12:45 AM 34.9°F1.6°C 31.7°F-0.2°C 88% Calm Calm -- 28.92 in979.3 mb - 0.00 in0.0 mm 0.04 in1.0 mm
01:00 AM 34.9°F1.6°C 31.7°F-0.2°C 88% Calm Calm -- 28.93 in979.7 mb - 0.00 in0.0 mm 0.00 in0.0 mm
01:15 AM 34.7°F1.5°C 31.5°F-0.3°C 88% Calm Calm 1.2 mph1.9 kmh 28.93 in979.7 mb - 0.00 in0.0 mm 0.00 in0.0 mm
01:30 AM 34.3°F1.3°C 31.4°F-0.3°C 89% Calm Calm -- 28.93 in979.7 mb - 0.00 in0.0 mm 0.00 in0.0 mm
01:45 AM 34.2°F1.2°C 31.3°F-0.4°C 89% Calm Calm -- 28.93 in979.7 mb - 0.00 in0.0 mm 0.00 in0.0 mm
02:00 AM 34.2°F1.2°C 31.3°F-0.4°C 89% Calm Calm -- 28.94 in980.0 mb - 0.00 in0.0 mm 0.00 in0.0 mm
02:15 AM 34.0°F1.1°C 31.4°F-0.3°C 90% Calm Calm -- 28.95 in980.4 mb - 0.00 in0.0 mm 0.00 in0.0 mm
02:30 AM 33.8°F1.0°C 31.2°F-0.4°C 90% 1.2 mph S1.9 kmh S 2.3 mph3.7 kmh 28.95 in980.4 mb - 0.00 in0.0 mm 0.00 in0.0 mm
02:45 AM 33.4°F0.8°C 31.1°F-0.5°C 91% Calm Calm -- 28.96 in980.7 mb - 0.00 in0.0 mm 0.00 in0.0 mm
03:00 AM 33.4°F0.8°C 31.1°F-0.5°C 91% Calm Calm -- 28.97 in981.0 mb - 0.00 in0.0 mm 0.00 in0.0 mm
03:15 AM 33.4°F0.8°C 31.1°F-0.5°C 91% Calm Calm -- 28.99 in981.7 mb - 0.00 in0.0 mm 0.00 in0.0 mm
03:30 AM 33.4°F0.8°C 31.3°F-0.4°C 92% Calm Calm -- 29.00 in982.1 mb - 0.00 in0.0 mm 0.00 in0.0 mm
03:45 AM 33.4°F0.8°C 31.3°F-0.4°C 92% Calm Calm -- 29.00 in982.1 mb - 0.00 in0.0 mm 0.00 in0.0 mm
04:00 AM 32.9°F0.5°C 30.8°F-0.7°C 92% Calm Calm -- 29.00 in982.1 mb - 0.00 in0.0 mm 0.00 in0.0 mm
04:15 AM 32.2°F0.1°C 30.4°F-0.9°C 93% Calm Calm -- 29.01 in982.4 mb - 0.00 in0.0 mm 0.00 in0.0 mm
04:30 AM 31.8°F-0.1°C 30.3°F-0.9°C 94% Calm Calm -- 29.01 in982.4 mb - 0.00 in0.0 mm 0.00 in0.0 mm
04:45 AM 31.5°F-0.3°C 30.2°F-1.0°C 95% Calm Calm -- 29.01 in982.4 mb - 0.00 in0.0 mm 0.00 in0.0 mm
05:00 AM 31.3°F-0.4°C 30.3°F-0.9°C 96% Calm Calm -- 29.02 in982.7 mb - 0.00 in0.0 mm 0.00 in0.0 mm
05:15 AM 31.3°F-0.4°C 30.3°F-0.9°C 96% Calm Calm -- 29.02 in982.7 mb - 0.00 in0.0 mm 0.00 in0.0 mm
05:30 AM 31.3°F-0.4°C 30.3°F-0.9°C 96% Calm Calm -- 29.03 in983.1 mb - 0.00 in0.0 mm 0.00 in0.0 mm
05:45 AM 31.1°F-0.5°C 30.1°F-1.1°C 96% Calm Calm -- 29.04 in983.4 mb - 0.00 in0.0 mm 0.00 in0.0 mm
06:00 AM 30.7°F-0.7°C 30.0°F-1.1°C 97% Calm Calm -- 29.04 in983.4 mb - 0.00 in0.0 mm 0.00 in0.0 mm
06:15 AM 30.4°F-0.9°C 29.7°F-1.3°C 97% Calm Calm -- 29.05 in983.7 mb - 0.00 in0.0 mm 0.00 in0.0 mm
06:30 AM 30.2°F-1.0°C 29.5°F-1.4°C 97% Calm Calm -- 29.06 in984.1 mb - 0.00 in0.0 mm 0.00 in0.0 mm
06:45 AM 30.1°F-1.1°C 29.6°F-1.3°C 98% Calm Calm -- 29.06 in984.1 mb - 0.00 in0.0 mm 0.00 in0.0 mm
07:00 AM 30.0°F-1.1°C 29.5°F-1.4°C 98% Calm Calm -- 29.07 in984.4 mb - 0.00 in0.0 mm 0.00 in0.0 mm
07:15 AM 29.8°F-1.2°C 29.3°F-1.5°C 98% Calm Calm -- 29.07 in984.4 mb - 0.00 in0.0 mm 0.00 in0.0 mm
07:30 AM 29.7°F-1.3°C 29.2°F-1.6°C 98% Calm Calm -- 29.08 in984.8 mb - 0.00 in0.0 mm 0.00 in0.0 mm
07:45 AM 29.7°F-1.3°C 29.2°F-1.6°C 98% Calm Calm -- 29.08 in984.8 mb - 0.00 in0.0 mm 0.00 in0.0 mm
08:00 AM 29.7°F-1.3°C 29.5°F-1.4°C 99% Calm Calm -- 29.08 in984.8 mb - 0.00 in0.0 mm 0.00 in0.0 mm
08:15 AM 30.2°F-1.0°C 30.0°F-1.1°C 99% Calm Calm -- 29.09 in985.1 mb - 0.00 in0.0 mm 0.00 in0.0 mm
08:30 AM 30.6°F-0.8°C 30.4°F-0.9°C 99% Calm Calm -- 29.10 in985.4 mb - 0.00 in0.0 mm 0.00 in0.0 mm
08:45 AM 31.1°F-0.5°C 30.9°F-0.6°C 99% Calm Calm -- 29.10 in985.4 mb - 0.00 in0.0 mm 0.00 in0.0 mm
09:00 AM 31.1°F-0.5°C 30.6°F-0.8°C 98% Calm Calm -- 29.11 in985.8 mb - 0.00 in0.0 mm 0.00 in0.0 mm
09:15 AM 31.3°F-0.4°C 30.8°F-0.7°C 98% Calm Calm -- 29.11 in985.8 mb - 0.00 in0.0 mm 0.00 in0.0 mm
09:30 AM 31.8°F-0.1°C 31.3°F-0.4°C 98% Calm Calm -- 29.11 in985.8 mb - 0.00 in0.0 mm 0.00 in0.0 mm
09:45 AM 32.7°F0.4°C 31.7°F-0.2°C 96% Calm Calm -- 29.13 in986.5 mb - 0.00 in0.0 mm 0.00 in0.0 mm
10:00 AM 33.3°F0.7°C 31.8°F-0.1°C 94% Calm Calm -- 29.14 in986.8 mb - 0.00 in0.0 mm 0.00 in0.0 mm
10:15 AM 33.8°F1.0°C 32.0°F0.0°C 93% Calm Calm -- 29.16 in987.5 mb - 0.00 in0.0 mm 0.00 in0.0 mm
10:30 AM 34.2°F1.2°C 32.1°F0.1°C 92% Calm Calm -- 29.16 in987.5 mb - 0.00 in0.0 mm 0.00 in0.0 mm
10:45 AM 35.0°F1.7°C 32.6°F0.3°C 91% Calm Calm -- 29.16 in987.5 mb - 0.00 in0.0 mm 0.00 in0.0 mm
11:00 AM 36.1°F2.3°C 33.1°F0.6°C 89% Calm Calm -- 29.17 in987.8 mb - 0.00 in0.0 mm 0.00 in0.0 mm
11:15 AM 36.5°F2.5°C 33.0°F0.6°C 87% Calm Calm -- 29.18 in988.1 mb - 0.00 in0.0 mm 0.00 in0.0 mm
11:30 AM 36.7°F2.6°C 33.2°F0.7°C 87% Calm Calm -- 29.18 in988.1 mb - 0.00 in0.0 mm 0.00 in0.0 mm
11:45 AM 37.4°F3.0°C 33.6°F0.9°C 86% Calm Calm -- 29.18 in988.1 mb - 0.00 in0.0 mm 0.00 in0.0 mm
12:00 PM 37.8°F3.2°C 33.7°F0.9°C 85% Calm Calm -- 29.17 in987.8 mb - 0.00 in0.0 mm 0.00 in0.0 mm
12:15 PM 38.5°F3.6°C 34.1°F1.2°C 84% Calm Calm -- 29.17 in987.8 mb - 0.00 in0.0 mm 0.00 in0.0 mm
12:30 PM 39.4°F4.1°C 34.4°F1.3°C 82% Calm Calm 1.2 mph1.9 kmh 29.17 in987.8 mb - 0.00 in0.0 mm 0.00 in0.0 mm
12:45 PM 39.7°F4.3°C 34.3°F1.3°C 81% Calm Calm -- 29.18 in988.1 mb - 0.00 in0.0 mm 0.00 in0.0 mm
01:00 PM 40.5°F4.7°C 35.1°F1.7°C 81% Calm Calm -- 29.18 in988.1 mb - 0.00 in0.0 mm 0.00 in0.0 mm
01:15 PM 41.9°F5.5°C 35.2°F1.8°C 77% Calm Calm -- 29.18 in988.1 mb - 0.01 in0.3 mm 0.01 in0.3 mm
01:30 PM 43.3°F6.3°C 35.5°F1.9°C 74% Calm Calm -- 29.18 in988.1 mb - 0.01 in0.3 mm 0.02 in0.5 mm
01:45 PM 44.1°F6.7°C 36.3°F2.4°C 74% Calm Calm 1.2 mph1.9 kmh 29.19 in988.5 mb - 0.00 in0.0 mm 0.02 in0.5 mm
02:00 PM 44.6°F7.0°C 36.1°F2.3°C 72% Calm Calm -- 29.17 in987.8 mb - 0.01 in0.3 mm 0.03 in0.8 mm
02:15 PM 44.0°F6.7°C 35.9°F2.2°C 73% Calm Calm -- 29.17 in987.8 mb - 0.01 in0.3 mm 0.04 in1.0 mm
02:30 PM 44.2°F6.8°C 36.1°F2.3°C 73% Calm Calm -- 29.17 in987.8 mb - 0.00 in0.0 mm 0.04 in1.0 mm
02:45 PM 44.4°F6.9°C 36.3°F2.4°C 73% Calm Calm -- 29.16 in987.5 mb - 0.00 in0.0 mm 0.04 in1.0 mm
03:00 PM 44.1°F6.7°C 36.0°F2.2°C 73% Calm Calm -- 29.16 in987.5 mb - 0.01 in0.3 mm 0.05 in1.3 mm
03:15 PM 44.1°F6.7°C 36.0°F2.2°C 73% Calm Calm -- 29.18 in988.1 mb - 0.01 in0.3 mm 0.06 in1.5 mm
03:30 PM 44.0°F6.7°C 36.2°F2.3°C 74% Calm Calm -- 29.19 in988.5 mb - 0.00 in0.0 mm 0.06 in1.5 mm
03:45 PM 42.9°F6.1°C 35.5°F1.9°C 75% Calm Calm -- 29.18 in988.1 mb - 0.00 in0.0 mm 0.06 in1.5 mm
04:00 PM 42.4°F5.8°C 35.7°F2.1°C 77% Calm Calm -- 29.18 in988.1 mb - 0.00 in0.0 mm 0.06 in1.5 mm
04:15 PM 41.9°F5.5°C 35.2°F1.8°C 77% Calm Calm -- 29.19 in988.5 mb - 0.00 in0.0 mm 0.06 in1.5 mm
04:30 PM 41.9°F5.5°C 35.5°F1.9°C 78% Calm Calm -- 29.20 in988.8 mb - 0.00 in0.0 mm 0.06 in1.5 mm
04:45 PM 41.4°F5.2°C 35.7°F2.1°C 80% Calm Calm -- 29.20 in988.8 mb - 0.00 in0.0 mm 0.06 in1.5 mm
05:00 PM 40.6°F4.8°C 35.2°F1.8°C 81% Calm Calm -- 29.20 in988.8 mb - 0.00 in0.0 mm 0.06 in1.5 mm
05:15 PM 39.7°F4.3°C 35.0°F1.7°C 83% Calm Calm -- 29.20 in988.8 mb - 0.00 in0.0 mm 0.06 in1.5 mm
05:30 PM 38.7°F3.7°C 34.6°F1.4°C 85% Calm Calm -- 29.21 in989.2 mb - 0.00 in0.0 mm 0.06 in1.5 mm
05:45 PM 37.9°F3.3°C 34.3°F1.3°C 87% Calm Calm -- 29.20 in988.8 mb - 0.00 in0.0 mm 0.06 in1.5 mm
06:00 PM 37.1°F2.8°C 34.1°F1.2°C 89% Calm Calm -- 29.21 in989.2 mb - 0.00 in0.0 mm 0.06 in1.5 mm
06:15 PM 36.5°F2.5°C 34.1°F1.2°C 91% Calm Calm -- 29.21 in989.2 mb - 0.00 in0.0 mm 0.06 in1.5 mm
06:30 PM 36.1°F2.3°C 34.0°F1.1°C 92% Calm Calm -- 29.22 in989.5 mb - 0.00 in0.0 mm 0.06 in1.5 mm
06:45 PM 35.8°F2.1°C 34.0°F1.1°C 93% Calm Calm -- 29.22 in989.5 mb - 0.00 in0.0 mm 0.06 in1.5 mm
07:00 PM 35.4°F1.9°C 33.8°F1.0°C 94% Calm Calm -- 29.22 in989.5 mb - 0.00 in0.0 mm 0.06 in1.5 mm
07:15 PM 35.2°F1.8°C 33.6°F0.9°C 94% Calm Calm -- 29.22 in989.5 mb - 0.00 in0.0 mm 0.06 in1.5 mm
07:30 PM 35.1°F1.7°C 33.8°F1.0°C 95% Calm Calm -- 29.22 in989.5 mb - 0.00 in0.0 mm 0.06 in1.5 mm
07:45 PM 34.9°F1.6°C 33.6°F0.9°C 95% Calm Calm -- 29.23 in989.8 mb - 0.00 in0.0 mm 0.06 in1.5 mm
08:00 PM 34.5°F1.4°C 33.2°F0.7°C 95% Calm Calm -- 29.23 in989.8 mb - 0.00 in0.0 mm 0.06 in1.5 mm
08:15 PM 34.2°F1.2°C 33.2°F0.7°C 96% Calm Calm -- 29.24 in990.2 mb - 0.00 in0.0 mm 0.06 in1.5 mm
08:30 PM 33.8°F1.0°C 33.0°F0.6°C 97% Calm Calm -- 29.23 in989.8 mb - 0.00 in0.0 mm 0.06 in1.5 mm
08:45 PM 33.8°F1.0°C 33.0°F0.6°C 97% Calm Calm -- 29.23 in989.8 mb - 0.00 in0.0 mm 0.06 in1.5 mm
09:00 PM 33.6°F0.9°C 32.8°F0.4°C 97% Calm Calm -- 29.23 in989.8 mb - 0.00 in0.0 mm 0.06 in1.5 mm
09:15 PM 33.4°F0.8°C 32.6°F0.3°C 97% Calm Calm -- 29.23 in989.8 mb - 0.00 in0.0 mm 0.06 in1.5 mm
09:30 PM 32.9°F0.5°C 32.4°F0.2°C 98% Calm Calm -- 29.22 in989.5 mb - 0.00 in0.0 mm 0.06 in1.5 mm
09:45 PM 32.7°F0.4°C 32.2°F0.1°C 98% Calm Calm -- 29.22 in989.5 mb - 0.00 in0.0 mm 0.06 in1.5 mm
10:00 PM 32.4°F0.2°C 32.2°F0.1°C 99% Calm Calm -- 29.22 in989.5 mb - 0.00 in0.0 mm 0.06 in1.5 mm
10:15 PM 31.9°F-0.1°C 31.7°F-0.2°C 99% Calm Calm -- 29.23 in989.8 mb - 0.00 in0.0 mm 0.06 in1.5 mm
10:30 PM 31.5°F-0.3°C 31.3°F-0.4°C 99% Calm Calm -- 29.23 in989.8 mb - 0.00 in0.0 mm 0.06 in1.5 mm
10:45 PM 31.5°F-0.3°C 31.3°F-0.4°C 99% Calm Calm -- 29.23 in989.8 mb - 0.00 in0.0 mm 0.06 in1.5 mm
11:00 PM 31.6°F-0.2°C 31.4°F-0.3°C 99% Calm Calm -- 29.23 in989.8 mb - 0.00 in0.0 mm 0.06 in1.5 mm
11:15 PM 31.8°F-0.1°C 31.6°F-0.2°C 99% Calm Calm -- 29.24 in990.2 mb - 0.00 in0.0 mm 0.06 in1.5 mm
11:30 PM 32.2°F0.1°C 32.0°F0.0°C 99% Calm Calm -- 29.24 in990.2 mb - 0.00 in0.0 mm 0.06 in1.5 mm
11:45 PM 32.2°F0.1°C 32.0°F0.0°C 99% Calm Calm -- 29.24 in990.2 mb - 0.00 in0.0 mm 0.06 in1.5 mm